sensor_id;sensor_type;location;lat;lon;timestamp;P1;durP1;ratioP1;P2;durP2;ratioP2
50803;SDS011;37205;51.434;6.756;2024-03-07T00:00:09;100.80;;;50.58;;
50803;SDS011;37205;51.434;6.756;2024-03-07T00:02:43;103.65;;;52.03;;
50803;SDS011;37205;51.434;6.756;2024-03-07T00:05:10;100.05;;;49.95;;
50803;SDS011;37205;51.434;6.756;2024-03-07T00:07:39;105.82;;;51.78;;
50803;SDS011;37205;51.434;6.756;2024-03-07T00:10:05;98.18;;;51.72;;
50803;SDS011;37205;51.434;6.756;2024-03-07T00:12:32;104.40;;;52.95;;
50803;SDS011;37205;51.434;6.756;2024-03-07T00:15:00;100.13;;;50.75;;
50803;SDS011;37205;51.434;6.756;2024-03-07T00:17:26;103.63;;;53.45;;
50803;SDS011;37205;51.434;6.756;2024-03-07T00:19:52;111.60;;;55.13;;
50803;SDS011;37205;51.434;6.756;2024-03-07T00:22:17;108.07;;;54.38;;
50803;SDS011;37205;51.434;6.756;2024-03-07T00:24:43;105.20;;;53.15;;
50803;SDS011;37205;51.434;6.756;2024-03-07T00:27:12;107.03;;;54.63;;
50803;SDS011;37205;51.434;6.756;2024-03-07T00:29:39;107.47;;;53.38;;
50803;SDS011;37205;51.434;6.756;2024-03-07T00:32:05;105.65;;;53.60;;
50803;SDS011;37205;51.434;6.756;2024-03-07T00:34:31;111.18;;;54.42;;
50803;SDS011;37205;51.434;6.756;2024-03-07T00:36:57;105.20;;;54.33;;
50803;SDS011;37205;51.434;6.756;2024-03-07T00:39:24;103.85;;;52.95;;
50803;SDS011;37205;51.434;6.756;2024-03-07T00:41:49;98.85;;;51.17;;
50803;SDS011;37205;51.434;6.756;2024-03-07T00:44:15;105.18;;;53.15;;
50803;SDS011;37205;51.434;6.756;2024-03-07T00:46:41;103.68;;;52.58;;
50803;SDS011;37205;51.434;6.756;2024-03-07T00:49:06;103.85;;;53.25;;
50803;SDS011;37205;51.434;6.756;2024-03-07T00:51:32;105.68;;;53.20;;
50803;SDS011;37205;51.434;6.756;2024-03-07T00:53:57;99.82;;;51.15;;
50803;SDS011;37205;51.434;6.756;2024-03-07T00:56:23;100.88;;;52.45;;
50803;SDS011;37205;51.434;6.756;2024-03-07T00:58:49;102.40;;;51.63;;
50803;SDS011;37205;51.434;6.756;2024-03-07T01:01:15;105.05;;;53.72;;
50803;SDS011;37205;51.434;6.756;2024-03-07T01:03:42;103.80;;;53.22;;
50803;SDS011;37205;51.434;6.756;2024-03-07T01:06:08;99.15;;;51.92;;
50803;SDS011;37205;51.434;6.756;2024-03-07T01:08:35;105.25;;;52.63;;
50803;SDS011;37205;51.434;6.756;2024-03-07T01:11:02;105.07;;;54.42;;
50803;SDS011;37205;51.434;6.756;2024-03-07T01:13:34;108.90;;;55.03;;
50803;SDS011;37205;51.434;6.756;2024-03-07T01:16:00;109.97;;;54.65;;
50803;SDS011;37205;51.434;6.756;2024-03-07T01:18:26;117.90;;;54.60;;
50803;SDS011;37205;51.434;6.756;2024-03-07T01:20:52;108.63;;;53.42;;
50803;SDS011;37205;51.434;6.756;2024-03-07T01:23:18;115.13;;;55.60;;
50803;SDS011;37205;51.434;6.756;2024-03-07T01:25:43;107.18;;;53.17;;
50803;SDS011;37205;51.434;6.756;2024-03-07T01:28:09;106.63;;;53.42;;
50803;SDS011;37205;51.434;6.756;2024-03-07T01:30:37;105.82;;;54.47;;
50803;SDS011;37205;51.434;6.756;2024-03-07T01:33:03;104.80;;;54.05;;
50803;SDS011;37205;51.434;6.756;2024-03-07T01:35:28;99.53;;;51.25;;
50803;SDS011;37205;51.434;6.756;2024-03-07T01:37:54;108.40;;;54.60;;
50803;SDS011;37205;51.434;6.756;2024-03-07T01:40:19;108.53;;;54.28;;
50803;SDS011;37205;51.434;6.756;2024-03-07T01:42:46;101.95;;;51.72;;
50803;SDS011;37205;51.434;6.756;2024-03-07T01:45:15;107.25;;;53.03;;
50803;SDS011;37205;51.434;6.756;2024-03-07T01:47:44;105.53;;;53.28;;
50803;SDS011;37205;51.434;6.756;2024-03-07T01:50:10;107.57;;;54.17;;
50803;SDS011;37205;51.434;6.756;2024-03-07T01:52:36;110.50;;;57.40;;
50803;SDS011;37205;51.434;6.756;2024-03-07T01:55:04;107.03;;;55.17;;
50803;SDS011;37205;51.434;6.756;2024-03-07T01:57:31;115.40;;;56.53;;
50803;SDS011;37205;51.434;6.756;2024-03-07T01:59:56;116.10;;;57.72;;
50803;SDS011;37205;51.434;6.756;2024-03-07T02:02:22;110.68;;;55.80;;
50803;SDS011;37205;51.434;6.756;2024-03-07T02:04:47;112.35;;;55.83;;
50803;SDS011;37205;51.434;6.756;2024-03-07T02:07:13;109.88;;;55.58;;
50803;SDS011;37205;51.434;6.756;2024-03-07T02:09:38;106.57;;;55.15;;
50803;SDS011;37205;51.434;6.756;2024-03-07T02:12:04;105.38;;;53.75;;
50803;SDS011;37205;51.434;6.756;2024-03-07T02:14:30;101.75;;;51.95;;
50803;SDS011;37205;51.434;6.756;2024-03-07T02:16:56;104.07;;;53.88;;
50803;SDS011;37205;51.434;6.756;2024-03-07T02:19:22;100.85;;;54.25;;
50803;SDS011;37205;51.434;6.756;2024-03-07T02:21:48;92.88;;;51.13;;
50803;SDS011;37205;51.434;6.756;2024-03-07T02:24:14;98.15;;;51.35;;
50803;SDS011;37205;51.434;6.756;2024-03-07T02:26:40;100.55;;;51.88;;
50803;SDS011;37205;51.434;6.756;2024-03-07T02:29:06;99.40;;;51.83;;
50803;SDS011;37205;51.434;6.756;2024-03-07T02:31:31;108.45;;;51.85;;
50803;SDS011;37205;51.434;6.756;2024-03-07T02:34:02;104.65;;;53.45;;
50803;SDS011;37205;51.434;6.756;2024-03-07T02:36:28;105.15;;;54.10;;
50803;SDS011;37205;51.434;6.756;2024-03-07T02:38:54;108.45;;;54.15;;
50803;SDS011;37205;51.434;6.756;2024-03-07T02:41:20;102.32;;;53.78;;
50803;SDS011;37205;51.434;6.756;2024-03-07T02:43:46;100.88;;;52.65;;
50803;SDS011;37205;51.434;6.756;2024-03-07T02:46:11;105.10;;;53.85;;
50803;SDS011;37205;51.434;6.756;2024-03-07T02:48:37;103.95;;;52.92;;
50803;SDS011;37205;51.434;6.756;2024-03-07T02:51:04;100.03;;;52.92;;
50803;SDS011;37205;51.434;6.756;2024-03-07T02:53:32;103.95;;;52.65;;
50803;SDS011;37205;51.434;6.756;2024-03-07T02:55:58;102.65;;;54.10;;
50803;SDS011;37205;51.434;6.756;2024-03-07T02:58:24;96.45;;;52.90;;
50803;SDS011;37205;51.434;6.756;2024-03-07T03:00:59;101.93;;;54.15;;
50803;SDS011;37205;51.434;6.756;2024-03-07T03:03:25;100.10;;;53.05;;
50803;SDS011;37205;51.434;6.756;2024-03-07T03:05:56;108.47;;;54.55;;
50803;SDS011;37205;51.434;6.756;2024-03-07T03:08:22;100.65;;;51.15;;
50803;SDS011;37205;51.434;6.756;2024-03-07T03:10:48;100.18;;;53.53;;
50803;SDS011;37205;51.434;6.756;2024-03-07T03:13:16;96.47;;;51.55;;
50803;SDS011;37205;51.434;6.756;2024-03-07T03:15:42;97.68;;;52.42;;
50803;SDS011;37205;51.434;6.756;2024-03-07T03:18:07;113.82;;;55.78;;
50803;SDS011;37205;51.434;6.756;2024-03-07T03:20:34;107.07;;;54.05;;
50803;SDS011;37205;51.434;6.756;2024-03-07T03:23:03;99.25;;;49.90;;
50803;SDS011;37205;51.434;6.756;2024-03-07T03:25:38;103.60;;;53.78;;
50803;SDS011;37205;51.434;6.756;2024-03-07T03:28:04;97.80;;;53.72;;
50803;SDS011;37205;51.434;6.756;2024-03-07T03:30:31;118.30;;;54.22;;
50803;SDS011;37205;51.434;6.756;2024-03-07T03:32:57;105.53;;;54.10;;
50803;SDS011;37205;51.434;6.756;2024-03-07T03:35:23;105.85;;;54.28;;
50803;SDS011;37205;51.434;6.756;2024-03-07T03:37:49;115.95;;;55.47;;
50803;SDS011;37205;51.434;6.756;2024-03-07T03:40:14;101.90;;;52.22;;
50803;SDS011;37205;51.434;6.756;2024-03-07T03:42:40;108.25;;;55.00;;
50803;SDS011;37205;51.434;6.756;2024-03-07T03:45:08;108.38;;;56.15;;
50803;SDS011;37205;51.434;6.756;2024-03-07T03:47:39;116.70;;;54.40;;
50803;SDS011;37205;51.434;6.756;2024-03-07T03:50:05;97.97;;;52.40;;
50803;SDS011;37205;51.434;6.756;2024-03-07T03:52:32;109.57;;;53.63;;
50803;SDS011;37205;51.434;6.756;2024-03-07T03:54:58;105.13;;;54.58;;
50803;SDS011;37205;51.434;6.756;2024-03-07T03:57:24;108.82;;;55.97;;
50803;SDS011;37205;51.434;6.756;2024-03-07T03:59:51;104.10;;;54.15;;
50803;SDS011;37205;51.434;6.756;2024-03-07T04:02:17;106.82;;;55.08;;
50803;SDS011;37205;51.434;6.756;2024-03-07T04:04:43;104.22;;;53.85;;
50803;SDS011;37205;51.434;6.756;2024-03-07T04:07:10;111.53;;;55.05;;
50803;SDS011;37205;51.434;6.756;2024-03-07T04:09:37;107.28;;;54.67;;
50803;SDS011;37205;51.434;6.756;2024-03-07T04:12:03;108.15;;;54.15;;
50803;SDS011;37205;51.434;6.756;2024-03-07T04:14:28;111.88;;;55.75;;
50803;SDS011;37205;51.434;6.756;2024-03-07T04:16:57;107.25;;;55.42;;
50803;SDS011;37205;51.434;6.756;2024-03-07T04:19:23;124.82;;;59.40;;
50803;SDS011;37205;51.434;6.756;2024-03-07T04:21:49;118.10;;;57.92;;
50803;SDS011;37205;51.434;6.756;2024-03-07T04:24:14;113.75;;;56.22;;
50803;SDS011;37205;51.434;6.756;2024-03-07T04:26:40;106.60;;;54.60;;
50803;SDS011;37205;51.434;6.756;2024-03-07T04:29:08;119.10;;;57.85;;
50803;SDS011;37205;51.434;6.756;2024-03-07T04:31:34;105.05;;;56.42;;
50803;SDS011;37205;51.434;6.756;2024-03-07T04:33:59;110.85;;;56.63;;
50803;SDS011;37205;51.434;6.756;2024-03-07T04:36:25;117.97;;;57.00;;
50803;SDS011;37205;51.434;6.756;2024-03-07T04:38:51;110.45;;;57.70;;
50803;SDS011;37205;51.434;6.756;2024-03-07T04:41:17;102.90;;;54.55;;
50803;SDS011;37205;51.434;6.756;2024-03-07T04:43:43;109.18;;;54.75;;
50803;SDS011;37205;51.434;6.756;2024-03-07T04:46:09;101.25;;;53.10;;
50803;SDS011;37205;51.434;6.756;2024-03-07T04:48:35;112.45;;;54.33;;
50803;SDS011;37205;51.434;6.756;2024-03-07T04:51:00;99.38;;;52.92;;
50803;SDS011;37205;51.434;6.756;2024-03-07T04:53:26;101.05;;;53.85;;
50803;SDS011;37205;51.434;6.756;2024-03-07T04:55:51;103.88;;;52.33;;
50803;SDS011;37205;51.434;6.756;2024-03-07T04:58:17;106.68;;;52.83;;
50803;SDS011;37205;51.434;6.756;2024-03-07T05:00:42;102.82;;;53.03;;
50803;SDS011;37205;51.434;6.756;2024-03-07T05:03:08;110.70;;;55.47;;
50803;SDS011;37205;51.434;6.756;2024-03-07T05:05:34;107.32;;;53.08;;
50803;SDS011;37205;51.434;6.756;2024-03-07T05:08:02;109.65;;;54.65;;
50803;SDS011;37205;51.434;6.756;2024-03-07T05:10:29;114.60;;;55.00;;
50803;SDS011;37205;51.434;6.756;2024-03-07T05:12:55;111.50;;;54.58;;
50803;SDS011;37205;51.434;6.756;2024-03-07T05:15:24;119.60;;;57.10;;
50803;SDS011;37205;51.434;6.756;2024-03-07T05:17:51;104.47;;;52.80;;
50803;SDS011;37205;51.434;6.756;2024-03-07T05:20:21;112.78;;;55.22;;
50803;SDS011;37205;51.434;6.756;2024-03-07T05:22:46;114.22;;;55.33;;
50803;SDS011;37205;51.434;6.756;2024-03-07T05:25:15;109.53;;;54.17;;
50803;SDS011;37205;51.434;6.756;2024-03-07T05:27:43;115.82;;;55.53;;
50803;SDS011;37205;51.434;6.756;2024-03-07T05:30:09;111.72;;;55.85;;
50803;SDS011;37205;51.434;6.756;2024-03-07T05:32:37;109.82;;;54.08;;
50803;SDS011;37205;51.434;6.756;2024-03-07T05:35:02;108.57;;;54.47;;
50803;SDS011;37205;51.434;6.756;2024-03-07T05:37:28;111.30;;;56.50;;
50803;SDS011;37205;51.434;6.756;2024-03-07T05:39:54;107.35;;;54.30;;
50803;SDS011;37205;51.434;6.756;2024-03-07T05:42:19;104.68;;;53.35;;
50803;SDS011;37205;51.434;6.756;2024-03-07T05:44:45;102.32;;;53.20;;
50803;SDS011;37205;51.434;6.756;2024-03-07T05:47:11;111.88;;;54.25;;
50803;SDS011;37205;51.434;6.756;2024-03-07T05:49:38;106.13;;;55.80;;
50803;SDS011;37205;51.434;6.756;2024-03-07T05:52:04;110.93;;;55.85;;
50803;SDS011;37205;51.434;6.756;2024-03-07T05:54:31;100.55;;;51.28;;
50803;SDS011;37205;51.434;6.756;2024-03-07T05:56:57;98.72;;;52.85;;
50803;SDS011;37205;51.434;6.756;2024-03-07T05:59:22;104.88;;;51.28;;
50803;SDS011;37205;51.434;6.756;2024-03-07T06:01:48;103.40;;;52.67;;
50803;SDS011;37205;51.434;6.756;2024-03-07T06:04:14;96.03;;;51.65;;
50803;SDS011;37205;51.434;6.756;2024-03-07T06:06:40;93.40;;;50.25;;
50803;SDS011;37205;51.434;6.756;2024-03-07T06:09:07;92.07;;;48.83;;
50803;SDS011;37205;51.434;6.756;2024-03-07T06:11:37;92.93;;;50.78;;
50803;SDS011;37205;51.434;6.756;2024-03-07T06:14:04;91.00;;;49.97;;
50803;SDS011;37205;51.434;6.756;2024-03-07T06:16:33;95.60;;;50.00;;
50803;SDS011;37205;51.434;6.756;2024-03-07T06:19:02;94.13;;;49.53;;
50803;SDS011;37205;51.434;6.756;2024-03-07T06:21:28;93.80;;;49.38;;
50803;SDS011;37205;51.434;6.756;2024-03-07T06:23:56;91.50;;;48.15;;
50803;SDS011;37205;51.434;6.756;2024-03-07T06:26:33;91.68;;;50.13;;
50803;SDS011;37205;51.434;6.756;2024-03-07T06:29:13;88.95;;;49.28;;
50803;SDS011;37205;51.434;6.756;2024-03-07T06:31:40;91.97;;;47.92;;
50803;SDS011;37205;51.434;6.756;2024-03-07T06:34:06;91.97;;;50.30;;
50803;SDS011;37205;51.434;6.756;2024-03-07T06:36:33;88.90;;;50.33;;
50803;SDS011;37205;51.434;6.756;2024-03-07T06:38:59;92.20;;;49.90;;
50803;SDS011;37205;51.434;6.756;2024-03-07T06:41:24;83.90;;;48.83;;
50803;SDS011;37205;51.434;6.756;2024-03-07T06:43:50;89.00;;;48.78;;
50803;SDS011;37205;51.434;6.756;2024-03-07T06:46:18;86.80;;;49.25;;
50803;SDS011;37205;51.434;6.756;2024-03-07T06:48:45;86.40;;;48.55;;
50803;SDS011;37205;51.434;6.756;2024-03-07T06:51:10;88.10;;;48.42;;
50803;SDS011;37205;51.434;6.756;2024-03-07T06:53:36;81.53;;;47.33;;
50803;SDS011;37205;51.434;6.756;2024-03-07T06:56:02;87.03;;;47.35;;
50803;SDS011;37205;51.434;6.756;2024-03-07T06:58:27;83.20;;;46.53;;
50803;SDS011;37205;51.434;6.756;2024-03-07T07:00:54;83.32;;;48.50;;
50803;SDS011;37205;51.434;6.756;2024-03-07T07:03:20;80.13;;;46.45;;
50803;SDS011;37205;51.434;6.756;2024-03-07T07:05:47;82.93;;;46.72;;
50803;SDS011;37205;51.434;6.756;2024-03-07T07:08:13;86.78;;;46.90;;
50803;SDS011;37205;51.434;6.756;2024-03-07T07:10:39;80.47;;;46.30;;
50803;SDS011;37205;51.434;6.756;2024-03-07T07:13:08;77.05;;;44.15;;
50803;SDS011;37205;51.434;6.756;2024-03-07T07:15:34;76.70;;;45.15;;
50803;SDS011;37205;51.434;6.756;2024-03-07T07:18:01;72.57;;;44.92;;
50803;SDS011;37205;51.434;6.756;2024-03-07T07:20:28;72.47;;;44.72;;
50803;SDS011;37205;51.434;6.756;2024-03-07T07:22:53;77.57;;;45.08;;
50803;SDS011;37205;51.434;6.756;2024-03-07T07:25:19;73.72;;;44.22;;
50803;SDS011;37205;51.434;6.756;2024-03-07T07:27:47;73.18;;;43.22;;
50803;SDS011;37205;51.434;6.756;2024-03-07T07:30:17;70.95;;;43.72;;
50803;SDS011;37205;51.434;6.756;2024-03-07T07:32:43;71.43;;;42.83;;
50803;SDS011;37205;51.434;6.756;2024-03-07T07:35:10;71.03;;;42.60;;
50803;SDS011;37205;51.434;6.756;2024-03-07T07:37:37;68.35;;;42.17;;
50803;SDS011;37205;51.434;6.756;2024-03-07T07:40:13;69.13;;;43.20;;
50803;SDS011;37205;51.434;6.756;2024-03-07T07:42:43;69.65;;;42.50;;
50803;SDS011;37205;51.434;6.756;2024-03-07T07:45:13;70.47;;;41.67;;
50803;SDS011;37205;51.434;6.756;2024-03-07T07:47:40;67.80;;;42.22;;
50803;SDS011;37205;51.434;6.756;2024-03-07T07:50:07;64.65;;;41.90;;
50803;SDS011;37205;51.434;6.756;2024-03-07T07:52:39;69.97;;;41.95;;
50803;SDS011;37205;51.434;6.756;2024-03-07T07:55:06;65.20;;;39.97;;
50803;SDS011;37205;51.434;6.756;2024-03-07T07:57:39;67.75;;;41.15;;
50803;SDS011;37205;51.434;6.756;2024-03-07T08:00:09;68.93;;;41.30;;
50803;SDS011;37205;51.434;6.756;2024-03-07T08:02:36;64.40;;;39.95;;
50803;SDS011;37205;51.434;6.756;2024-03-07T08:05:02;63.92;;;40.88;;
50803;SDS011;37205;51.434;6.756;2024-03-07T08:07:30;61.28;;;38.67;;
50803;SDS011;37205;51.434;6.756;2024-03-07T08:09:56;59.10;;;38.95;;
50803;SDS011;37205;51.434;6.756;2024-03-07T08:12:21;62.03;;;39.38;;
50803;SDS011;37205;51.434;6.756;2024-03-07T08:14:47;56.70;;;36.35;;
50803;SDS011;37205;51.434;6.756;2024-03-07T08:17:13;55.22;;;37.05;;
50803;SDS011;37205;51.434;6.756;2024-03-07T08:19:39;53.03;;;35.85;;
50803;SDS011;37205;51.434;6.756;2024-03-07T08:22:05;56.13;;;36.97;;
50803;SDS011;37205;51.434;6.756;2024-03-07T08:24:31;57.45;;;35.58;;
50803;SDS011;37205;51.434;6.756;2024-03-07T08:26:57;59.25;;;36.67;;
50803;SDS011;37205;51.434;6.756;2024-03-07T08:29:22;55.22;;;36.00;;
50803;SDS011;37205;51.434;6.756;2024-03-07T08:31:49;56.13;;;37.42;;
50803;SDS011;37205;51.434;6.756;2024-03-07T08:34:14;54.17;;;35.33;;
50803;SDS011;37205;51.434;6.756;2024-03-07T08:36:40;50.90;;;35.08;;
50803;SDS011;37205;51.434;6.756;2024-03-07T08:39:05;52.38;;;34.88;;
50803;SDS011;37205;51.434;6.756;2024-03-07T08:41:35;52.40;;;33.08;;
50803;SDS011;37205;51.434;6.756;2024-03-07T08:44:06;52.88;;;33.33;;
50803;SDS011;37205;51.434;6.756;2024-03-07T08:46:31;51.95;;;34.38;;
50803;SDS011;37205;51.434;6.756;2024-03-07T08:48:57;49.30;;;31.40;;
50803;SDS011;37205;51.434;6.756;2024-03-07T08:51:22;42.67;;;29.05;;
50803;SDS011;37205;51.434;6.756;2024-03-07T08:53:48;44.03;;;30.27;;
50803;SDS011;37205;51.434;6.756;2024-03-07T08:56:13;43.97;;;30.00;;
50803;SDS011;37205;51.434;6.756;2024-03-07T08:58:39;39.25;;;27.17;;
50803;SDS011;37205;51.434;6.756;2024-03-07T09:01:04;38.40;;;26.80;;
50803;SDS011;37205;51.434;6.756;2024-03-07T09:03:30;39.97;;;26.65;;
50803;SDS011;37205;51.434;6.756;2024-03-07T09:05:55;38.67;;;25.83;;
50803;SDS011;37205;51.434;6.756;2024-03-07T09:08:21;36.42;;;25.95;;
50803;SDS011;37205;51.434;6.756;2024-03-07T09:10:46;36.97;;;25.90;;
50803;SDS011;37205;51.434;6.756;2024-03-07T09:13:12;38.72;;;26.55;;
50803;SDS011;37205;51.434;6.756;2024-03-07T09:15:37;32.38;;;22.85;;
50803;SDS011;37205;51.434;6.756;2024-03-07T09:18:03;32.42;;;21.50;;
50803;SDS011;37205;51.434;6.756;2024-03-07T09:20:29;31.98;;;21.83;;
50803;SDS011;37205;51.434;6.756;2024-03-07T09:22:56;33.90;;;21.23;;
50803;SDS011;37205;51.434;6.756;2024-03-07T09:25:21;30.02;;;21.33;;
50803;SDS011;37205;51.434;6.756;2024-03-07T09:27:48;29.13;;;20.92;;
50803;SDS011;37205;51.434;6.756;2024-03-07T09:30:14;29.10;;;20.50;;
50803;SDS011;37205;51.434;6.756;2024-03-07T09:32:42;28.90;;;19.20;;
50803;SDS011;37205;51.434;6.756;2024-03-07T09:35:08;32.13;;;21.17;;
50803;SDS011;37205;51.434;6.756;2024-03-07T09:37:38;29.52;;;21.23;;
50803;SDS011;37205;51.434;6.756;2024-03-07T09:40:04;27.10;;;19.65;;
50803;SDS011;37205;51.434;6.756;2024-03-07T09:42:31;29.25;;;19.92;;
50803;SDS011;37205;51.434;6.756;2024-03-07T09:44:58;27.52;;;18.35;;
50803;SDS011;37205;51.434;6.756;2024-03-07T09:47:28;26.08;;;17.88;;
50803;SDS011;37205;51.434;6.756;2024-03-07T09:49:54;25.52;;;18.02;;
50803;SDS011;37205;51.434;6.756;2024-03-07T09:52:21;26.63;;;19.25;;
50803;SDS011;37205;51.434;6.756;2024-03-07T09:54:47;25.58;;;18.40;;
50803;SDS011;37205;51.434;6.756;2024-03-07T09:57:13;28.40;;;19.65;;
50803;SDS011;37205;51.434;6.756;2024-03-07T09:59:39;29.00;;;20.48;;
50803;SDS011;37205;51.434;6.756;2024-03-07T10:02:08;27.60;;;19.98;;
50803;SDS011;37205;51.434;6.756;2024-03-07T10:04:40;29.92;;;20.05;;
50803;SDS011;37205;51.434;6.756;2024-03-07T10:07:13;30.73;;;20.73;;
50803;SDS011;37205;51.434;6.756;2024-03-07T10:09:43;30.75;;;21.80;;
50803;SDS011;37205;51.434;6.756;2024-03-07T10:12:09;28.08;;;19.95;;
50803;SDS011;37205;51.434;6.756;2024-03-07T10:14:37;29.67;;;20.40;;
50803;SDS011;37205;51.434;6.756;2024-03-07T10:17:03;29.77;;;20.40;;
50803;SDS011;37205;51.434;6.756;2024-03-07T10:19:30;27.75;;;20.20;;
50803;SDS011;37205;51.434;6.756;2024-03-07T10:21:56;29.67;;;21.05;;
50803;SDS011;37205;51.434;6.756;2024-03-07T10:24:26;29.17;;;20.98;;
50803;SDS011;37205;51.434;6.756;2024-03-07T10:26:52;30.40;;;21.95;;
50803;SDS011;37205;51.434;6.756;2024-03-07T10:29:21;30.08;;;20.50;;
50803;SDS011;37205;51.434;6.756;2024-03-07T10:31:49;27.98;;;19.52;;
50803;SDS011;37205;51.434;6.756;2024-03-07T10:34:14;26.40;;;19.67;;
50803;SDS011;37205;51.434;6.756;2024-03-07T10:36:42;26.55;;;19.50;;
50803;SDS011;37205;51.434;6.756;2024-03-07T10:39:08;26.95;;;19.00;;
50803;SDS011;37205;51.434;6.756;2024-03-07T10:41:44;26.00;;;18.07;;
50803;SDS011;37205;51.434;6.756;2024-03-07T10:44:36;28.50;;;18.83;;
50803;SDS011;37205;51.434;6.756;2024-03-07T10:47:06;27.48;;;19.27;;
50803;SDS011;37205;51.434;6.756;2024-03-07T10:49:33;27.05;;;19.17;;
50803;SDS011;37205;51.434;6.756;2024-03-07T10:52:13;26.08;;;18.85;;
50803;SDS011;37205;51.434;6.756;2024-03-07T10:54:56;25.45;;;18.17;;
50803;SDS011;37205;51.434;6.756;2024-03-07T11:00:00;25.17;;;17.85;;
50803;SDS011;37205;51.434;6.756;2024-03-07T11:02:49;25.52;;;17.75;;
50803;SDS011;37205;51.434;6.756;2024-03-07T11:05:18;24.08;;;17.88;;
50803;SDS011;37205;51.434;6.756;2024-03-07T11:07:44;24.20;;;18.08;;
50803;SDS011;37205;51.434;6.756;2024-03-07T11:10:10;26.27;;;18.25;;
50803;SDS011;37205;51.434;6.756;2024-03-07T11:12:36;24.90;;;17.83;;
50803;SDS011;37205;51.434;6.756;2024-03-07T11:15:06;24.08;;;17.88;;
50803;SDS011;37205;51.434;6.756;2024-03-07T11:17:39;24.92;;;18.23;;
50803;SDS011;37205;51.434;6.756;2024-03-07T11:22:48;23.98;;;18.05;;
50803;SDS011;37205;51.434;6.756;2024-03-07T11:25:16;23.77;;;17.80;;
50803;SDS011;37205;51.434;6.756;2024-03-07T11:27:50;24.88;;;19.10;;
50803;SDS011;37205;51.434;6.756;2024-03-07T11:30:17;25.33;;;19.30;;
50803;SDS011;37205;51.434;6.756;2024-03-07T11:32:43;25.27;;;17.65;;
50803;SDS011;37205;51.434;6.756;2024-03-07T11:35:12;27.42;;;19.00;;
50803;SDS011;37205;51.434;6.756;2024-03-07T11:37:47;27.60;;;20.23;;
50803;SDS011;37205;51.434;6.756;2024-03-07T11:40:13;28.08;;;19.23;;
50803;SDS011;37205;51.434;6.756;2024-03-07T11:42:48;27.13;;;18.92;;
50803;SDS011;37205;51.434;6.756;2024-03-07T11:45:14;25.80;;;19.65;;
50803;SDS011;37205;51.434;6.756;2024-03-07T11:47:50;25.42;;;19.17;;
50803;SDS011;37205;51.434;6.756;2024-03-07T11:50:25;27.38;;;19.60;;
50803;SDS011;37205;51.434;6.756;2024-03-07T11:52:53;24.60;;;19.00;;
50803;SDS011;37205;51.434;6.756;2024-03-07T11:55:22;24.52;;;18.27;;
50803;SDS011;37205;51.434;6.756;2024-03-07T11:57:48;24.38;;;17.90;;
50803;SDS011;37205;51.434;6.756;2024-03-07T12:00:15;26.52;;;19.45;;
50803;SDS011;37205;51.434;6.756;2024-03-07T12:02:43;26.02;;;18.63;;
50803;SDS011;37205;51.434;6.756;2024-03-07T12:05:09;23.17;;;17.55;;
50803;SDS011;37205;51.434;6.756;2024-03-07T12:07:35;23.05;;;18.45;;
50803;SDS011;37205;51.434;6.756;2024-03-07T12:10:02;23.73;;;18.50;;
50803;SDS011;37205;51.434;6.756;2024-03-07T12:12:31;25.70;;;18.70;;
50803;SDS011;37205;51.434;6.756;2024-03-07T12:14:57;22.10;;;17.30;;
50803;SDS011;37205;51.434;6.756;2024-03-07T12:17:24;21.95;;;17.40;;
50803;SDS011;37205;51.434;6.756;2024-03-07T12:19:50;24.58;;;18.35;;
50803;SDS011;37205;51.434;6.756;2024-03-07T12:22:18;23.90;;;17.95;;
50803;SDS011;37205;51.434;6.756;2024-03-07T12:24:48;22.67;;;17.55;;
50803;SDS011;37205;51.434;6.756;2024-03-07T12:27:24;24.20;;;18.30;;
50803;SDS011;37205;51.434;6.756;2024-03-07T12:29:49;24.55;;;17.75;;
50803;SDS011;37205;51.434;6.756;2024-03-07T12:32:17;21.50;;;17.50;;
50803;SDS011;37205;51.434;6.756;2024-03-07T12:34:43;23.05;;;18.15;;
50803;SDS011;37205;51.434;6.756;2024-03-07T12:37:12;23.90;;;18.27;;
50803;SDS011;37205;51.434;6.756;2024-03-07T12:39:41;24.25;;;18.58;;
50803;SDS011;37205;51.434;6.756;2024-03-07T12:44:43;21.73;;;17.83;;
50803;SDS011;37205;51.434;6.756;2024-03-07T12:49:44;24.30;;;17.90;;
50803;SDS011;37205;51.434;6.756;2024-03-07T12:52:10;23.80;;;17.42;;
50803;SDS011;37205;51.434;6.756;2024-03-07T12:54:40;23.27;;;18.00;;
50803;SDS011;37205;51.434;6.756;2024-03-07T12:57:12;24.27;;;19.17;;
50803;SDS011;37205;51.434;6.756;2024-03-07T12:59:38;28.58;;;20.58;;
50803;SDS011;37205;51.434;6.756;2024-03-07T13:02:05;25.63;;;17.70;;
50803;SDS011;37205;51.434;6.756;2024-03-07T13:04:34;25.75;;;18.55;;
50803;SDS011;37205;51.434;6.756;2024-03-07T13:07:04;23.65;;;18.17;;
50803;SDS011;37205;51.434;6.756;2024-03-07T13:09:31;24.10;;;18.20;;
50803;SDS011;37205;51.434;6.756;2024-03-07T13:11:57;22.55;;;17.95;;
50803;SDS011;37205;51.434;6.756;2024-03-07T13:14:25;23.02;;;17.98;;
50803;SDS011;37205;51.434;6.756;2024-03-07T13:17:00;23.98;;;18.45;;
50803;SDS011;37205;51.434;6.756;2024-03-07T13:19:27;21.17;;;17.10;;
50803;SDS011;37205;51.434;6.756;2024-03-07T13:21:54;23.58;;;17.50;;
50803;SDS011;37205;51.434;6.756;2024-03-07T13:24:20;20.92;;;17.20;;
50803;SDS011;37205;51.434;6.756;2024-03-07T13:26:46;21.73;;;17.33;;
50803;SDS011;37205;51.434;6.756;2024-03-07T13:29:16;26.13;;;17.45;;
50803;SDS011;37205;51.434;6.756;2024-03-07T13:31:43;23.83;;;18.90;;
50803;SDS011;37205;51.434;6.756;2024-03-07T13:34:10;22.40;;;18.00;;
50803;SDS011;37205;51.434;6.756;2024-03-07T13:36:39;22.27;;;17.25;;
50803;SDS011;37205;51.434;6.756;2024-03-07T13:39:06;22.65;;;17.90;;
50803;SDS011;37205;51.434;6.756;2024-03-07T13:41:36;21.08;;;16.63;;
50803;SDS011;37205;51.434;6.756;2024-03-07T13:44:02;22.73;;;16.67;;
50803;SDS011;37205;51.434;6.756;2024-03-07T13:46:28;22.45;;;16.65;;
50803;SDS011;37205;51.434;6.756;2024-03-07T13:48:54;21.75;;;17.67;;
50803;SDS011;37205;51.434;6.756;2024-03-07T13:51:25;21.88;;;17.00;;
50803;SDS011;37205;51.434;6.756;2024-03-07T13:53:52;24.80;;;18.60;;
50803;SDS011;37205;51.434;6.756;2024-03-07T13:56:39;21.83;;;16.90;;
50803;SDS011;37205;51.434;6.756;2024-03-07T14:07:44;20.27;;;15.93;;
50803;SDS011;37205;51.434;6.756;2024-03-07T14:24:50;16.73;;;13.10;;
50803;SDS011;37205;51.434;6.756;2024-03-07T14:27:25;15.77;;;12.68;;
50803;SDS011;37205;51.434;6.756;2024-03-07T14:30:04;16.23;;;12.10;;
50803;SDS011;37205;51.434;6.756;2024-03-07T14:32:36;18.23;;;12.43;;
50803;SDS011;37205;51.434;6.756;2024-03-07T14:35:09;12.63;;;10.57;;
50803;SDS011;37205;51.434;6.756;2024-03-07T14:38:05;15.48;;;11.32;;
50803;SDS011;37205;51.434;6.756;2024-03-07T14:40:46;13.88;;;10.85;;
50803;SDS011;37205;51.434;6.756;2024-03-07T14:43:14;14.85;;;11.70;;
50803;SDS011;37205;51.434;6.756;2024-03-07T14:45:41;12.80;;;10.25;;
50803;SDS011;37205;51.434;6.756;2024-03-07T14:48:08;14.95;;;11.48;;
50803;SDS011;37205;51.434;6.756;2024-03-07T14:50:37;15.82;;;10.35;;